Swampscott, Massachusetts
Current Conditions -  °F | °C
As of 4:42 AM on Friday 24 Oct 2014 (Local Time) from KBVY Reporting Station
Light Rain Light Rain  
Wind Chill: 44°   Ceiling: 800
Heat Index: 49°   Visibility: 4mi
Dew Point: 46°   Wind: 14mph
Humidity: 90%   Direction: 340°NNW
Pressure: 29.66"   Gusts: NA
Location:  42.47°N, 70.92°W
Report Text: KBVY 240842Z AUTO 34012KT 4SM -RA BR BKN008 OVC012 09/08 A2966 RMK AO2 RAB01 P0000 T00940078
Loading
Personal Weather Stations






























Interactive Weather Map
Tropical Storm Tracking
New forecast layout! Learn more

10-Day Weather Forecast

Advertisements
Track Severe Weather on mobile